createdAt,value
2017-10-30T00:00:03.340Z,768.45
2017-10-30T00:00:07.423Z,768.47
2017-10-30T00:00:11.761Z,768.48
2017-10-30T00:00:15.841Z,768.47
2017-10-30T00:00:19.923Z,768.49
2017-10-30T00:00:23.869Z,768.51
2017-10-30T00:00:28.217Z,768.47
2017-10-30T00:00:32.034Z,768.47
2017-10-30T00:00:35.719Z,768.5
2017-10-30T00:00:39.933Z,768.44
2017-10-30T00:00:44.006Z,768.49
2017-10-30T00:00:47.957Z,768.48
2017-10-30T00:00:52.038Z,768.51
2017-10-30T00:00:56.112Z,768.48
2017-10-30T00:01:00.336Z,768.5
2017-10-30T00:01:04.840Z,768.45
2017-10-30T00:01:08.923Z,768.47
2017-10-30T00:01:13.012Z,768.44
2017-10-30T00:01:17.228Z,768.47
2017-10-30T00:01:21.306Z,768.46
2017-10-30T00:01:25.517Z,768.47
2017-10-30T00:01:29.734Z,768.46
2017-10-30T00:01:33.815Z,768.45
2017-10-30T00:01:37.911Z,768.5
2017-10-30T00:01:42.127Z,768.46
2017-10-30T00:01:46.073Z,768.45
2017-10-30T00:01:50.409Z,768.47
2017-10-30T00:01:54.357Z,768.43
2017-10-30T00:01:58.473Z,768.45
2017-10-30T00:02:02.554Z,768.45
2017-10-30T00:02:06.632Z,768.49
2017-10-30T00:02:10.982Z,768.47
2017-10-30T00:02:15.329Z,768.46
2017-10-30T00:02:19.538Z,768.48
2017-10-30T00:02:23.622Z,768.49
2017-10-30T00:02:27.567Z,768.49
2017-10-30T00:02:31.643Z,768.45
2017-10-30T00:02:35.592Z,768.46
2017-10-30T00:02:39.541Z,768.49
2017-10-30T00:02:44.014Z,768.47
2017-10-30T00:02:47.963Z,768.42
2017-10-30T00:02:51.913Z,768.47
2017-10-30T00:02:55.988Z,768.45
2017-10-30T00:03:00.210Z,768.46
2017-10-30T00:03:04.584Z,768.46
2017-10-30T00:03:08.402Z,768.43
2017-10-30T00:03:12.502Z,768.45
2017-10-30T00:03:16.450Z,768.43
2017-10-30T00:03:20.400Z,768.44
2017-10-30T00:03:24.744Z,768.45
2017-10-30T00:03:28.692Z,768.46
2017-10-30T00:03:32.914Z,768.45
2017-10-30T00:03:36.989Z,768.43
2017-10-30T00:03:41.072Z,768.39
2017-10-30T00:03:45.304Z,768.43
2017-10-30T00:03:49.381Z,768.45
2017-10-30T00:03:53.325Z,768.45
2017-10-30T00:03:57.539Z,768.43
2017-10-30T00:04:01.488Z,768.41
2017-10-30T00:04:05.716Z,768.45
2017-10-30T00:04:09.937Z,768.44
2017-10-30T00:04:13.754Z,768.43
2017-10-30T00:04:17.565Z,768.47
2017-10-30T00:04:21.519Z,768.44
2017-10-30T00:04:25.733Z,768.44
2017-10-30T00:04:29.676Z,768.46
2017-10-30T00:04:33.889Z,768.44
2017-10-30T00:04:38.255Z,768.42
2017-10-30T00:04:42.360Z,768.44
2017-10-30T00:04:46.304Z,768.42
2017-10-30T00:04:50.386Z,768.41
2017-10-30T00:04:54.466Z,768.43
2017-10-30T00:04:58.291Z,768.42
2017-10-30T00:05:02.508Z,768.44
2017-10-30T00:05:06.851Z,768.38
2017-10-30T00:05:10.929Z,768.39
2017-10-30T00:05:15.004Z,768.4
2017-10-30T00:05:19.098Z,768.37
2017-10-30T00:05:23.176Z,768.41
2017-10-30T00:05:27.251Z,768.38
2017-10-30T00:05:31.230Z,768.39
2017-10-30T00:05:35.152Z,768.41
2017-10-30T00:05:39.489Z,768.36
2017-10-30T00:05:43.575Z,768.4
2017-10-30T00:05:47.658Z,768.41
2017-10-30T00:05:51.866Z,768.4
2017-10-30T00:05:55.949Z,768.41
2017-10-30T00:06:00.171Z,768.38
2017-10-30T00:06:04.543Z,768.4
2017-10-30T00:06:08.621Z,768.38
2017-10-30T00:06:12.448Z,768.36
2017-10-30T00:06:16.797Z,768.33
2017-10-30T00:06:20.739Z,768.35
2017-10-30T00:06:24.823Z,768.39
2017-10-30T00:06:29.039Z,768.4
2017-10-30T00:06:33.252Z,768.42
2017-10-30T00:06:36.935Z,768.38
2017-10-30T00:06:41.155Z,768.38
2017-10-30T00:06:45.100Z,768.39
2017-10-30T00:06:49.314Z,768.35
2017-10-30T00:06:53.263Z,768.36
2017-10-30T00:06:57.088Z,768.34
2017-10-30T00:07:00.908Z,768.35
2017-10-30T00:07:05.183Z,768.34
2017-10-30T00:07:09.422Z,768.35
2017-10-30T00:07:13.374Z,768.34
2017-10-30T00:07:17.600Z,768.32
2017-10-30T00:07:21.810Z,768.36
2017-10-30T00:07:25.761Z,768.36
2017-10-30T00:07:29.704Z,768.35
2017-10-30T00:07:33.648Z,768.34
2017-10-30T00:07:37.728Z,768.31
2017-10-30T00:07:41.806Z,768.36
2017-10-30T00:07:45.886Z,768.32
2017-10-30T00:07:49.831Z,768.35
2017-10-30T00:07:53.904Z,768.32
2017-10-30T00:07:57.980Z,768.33
2017-10-30T00:08:02.325Z,768.38
2017-10-30T00:08:06.406Z,768.35
2017-10-30T00:08:10.625Z,768.36
2017-10-30T00:08:14.711Z,768.34
2017-10-30T00:08:18.701Z,768.3
2017-10-30T00:08:22.647Z,768.33
2017-10-30T00:08:26.465Z,768.32
2017-10-30T00:08:30.839Z,768.33
2017-10-30T00:08:34.777Z,768.3
2017-10-30T00:08:38.725Z,768.35
2017-10-30T00:08:42.801Z,768.27
2017-10-30T00:08:47.010Z,768.34
2017-10-30T00:08:51.093Z,768.32
2017-10-30T00:08:55.040Z,768.33
2017-10-30T00:08:59.378Z,768.3
2017-10-30T00:09:03.973Z,768.31
2017-10-30T00:09:08.189Z,768.3
2017-10-30T00:09:12.267Z,768.3
2017-10-30T00:09:16.219Z,768.29
2017-10-30T00:09:20.032Z,768.29
2017-10-30T00:09:24.122Z,768.32
2017-10-30T00:09:28.197Z,768.31
2017-10-30T00:09:32.667Z,768.33
2017-10-30T00:09:36.884Z,768.33
2017-10-30T00:09:40.847Z,768.32
2017-10-30T00:09:44.792Z,768.33
2017-10-30T00:09:48.744Z,768.28
2017-10-30T00:09:52.560Z,768.3
2017-10-30T00:09:56.770Z,768.31
2017-10-30T00:10:00.856Z,768.29
2017-10-30T00:10:04.916Z,768.31
2017-10-30T00:10:09.139Z,768.25
2017-10-30T00:10:13.357Z,768.29
2017-10-30T00:10:17.574Z,768.29
2017-10-30T00:10:21.519Z,768.27
2017-10-30T00:10:25.596Z,768.29
2017-10-30T00:10:29.428Z,768.28
2017-10-30T00:10:33.642Z,768.27
2017-10-30T00:10:37.859Z,768.27
2017-10-30T00:10:41.808Z,768.25
2017-10-30T00:10:45.901Z,768.25
2017-10-30T00:10:49.993Z,768.25
2017-10-30T00:10:53.818Z,768.26
2017-10-30T00:10:57.895Z,768.24
2017-10-30T00:11:02.235Z,768.26
2017-10-30T00:11:06.173Z,768.28
2017-10-30T00:11:10.526Z,768.22
2017-10-30T00:11:14.340Z,768.25
2017-10-30T00:11:18.418Z,768.22
2017-10-30T00:11:22.365Z,768.22
2017-10-30T00:11:26.310Z,768.24
2017-10-30T00:11:30.388Z,768.22
2017-10-30T00:11:34.595Z,768.25
2017-10-30T00:11:38.813Z,768.25
2017-10-30T00:11:42.907Z,768.21
2017-10-30T00:11:47.111Z,768.21
2017-10-30T00:11:51.192Z,768.23
2017-10-30T00:11:55.419Z,768.24
2017-10-30T00:11:59.375Z,768.27
2017-10-30T00:12:03.705Z,768.24
2017-10-30T00:12:08.063Z,768.23
2017-10-30T00:12:12.153Z,768.21
2017-10-30T00:12:15.965Z,768.23
2017-10-30T00:12:19.786Z,768.2
2017-10-30T00:12:23.731Z,768.21
2017-10-30T00:12:27.941Z,768.2
2017-10-30T00:12:31.890Z,768.21
2017-10-30T00:12:36.101Z,768.19
2017-10-30T00:12:40.437Z,768.16
2017-10-30T00:12:44.387Z,768.18
2017-10-30T00:12:48.331Z,768.15
2017-10-30T00:12:52.406Z,768.2
2017-10-30T00:12:56.488Z,768.22
2017-10-30T00:13:00.571Z,768.18
2017-10-30T00:13:04.829Z,768.19
2017-10-30T00:13:08.903Z,768.18
2017-10-30T00:13:13.123Z,768.17
2017-10-30T00:13:17.195Z,768.18
2017-10-30T00:13:21.133Z,768.17
2017-10-30T00:13:24.956Z,768.17
2017-10-30T00:13:28.912Z,768.16
2017-10-30T00:13:33.124Z,768.14
2017-10-30T00:13:37.341Z,768.15
2017-10-30T00:13:41.550Z,768.16
2017-10-30T00:13:45.491Z,768.15
2017-10-30T00:13:49.434Z,768.13
2017-10-30T00:13:53.812Z,768.14
2017-10-30T00:13:58.022Z,768.15
2017-10-30T00:14:02.619Z,768.08
2017-10-30T00:14:06.439Z,768.12
2017-10-30T00:14:10.424Z,768.09
2017-10-30T00:14:14.510Z,768.08
2017-10-30T00:14:18.463Z,768.08
2017-10-30T00:14:22.273Z,768.13
2017-10-30T00:14:26.349Z,768.15
2017-10-30T00:14:30.550Z,768.12
2017-10-30T00:14:34.778Z,768.1
2017-10-30T00:14:38.729Z,768.1
2017-10-30T00:14:42.808Z,768.15
2017-10-30T00:14:46.627Z,768.14
2017-10-30T00:14:50.575Z,768.1
2017-10-30T00:14:54.517Z,768.1
2017-10-30T00:14:58.466Z,768.06
2017-10-30T00:15:02.826Z,768.08
2017-10-30T00:15:06.906Z,768.1
2017-10-30T00:15:11.260Z,768.07
2017-10-30T00:15:15.347Z,768.12
2017-10-30T00:15:19.291Z,768.11
2017-10-30T00:15:23.236Z,768.09
2017-10-30T00:15:27.445Z,768.1
2017-10-30T00:15:31.524Z,768.09
2017-10-30T00:15:35.732Z,768.08
2017-10-30T00:15:39.680Z,768.08
2017-10-30T00:15:43.633Z,768.1
2017-10-30T00:15:47.574Z,768.09
2017-10-30T00:15:51.266Z,768.1
2017-10-30T00:15:55.349Z,768.09
2017-10-30T00:15:59.435Z,768.1
2017-10-30T00:16:03.884Z,768.11
2017-10-30T00:16:07.968Z,768.1
2017-10-30T00:16:12.311Z,768.05
2017-10-30T00:16:16.258Z,768.05
2017-10-30T00:16:20.479Z,768.08
2017-10-30T00:16:24.986Z,768.07
2017-10-30T00:16:28.935Z,768.09
2017-10-30T00:16:33.013Z,768.08
2017-10-30T00:16:37.367Z,768.06
2017-10-30T00:16:41.453Z,768.06
2017-10-30T00:16:45.666Z,768.07
2017-10-30T00:16:49.880Z,768.1
2017-10-30T00:16:53.960Z,768.09
2017-10-30T00:16:58.032Z,768.04
2017-10-30T00:17:01.984Z,768.01
2017-10-30T00:17:06.343Z,768.01
2017-10-30T00:17:10.702Z,768.04
2017-10-30T00:17:15.049Z,768.06
2017-10-30T00:17:19.139Z,768.04
2017-10-30T00:17:22.953Z,768.05
2017-10-30T00:17:27.037Z,768.05
2017-10-30T00:17:30.986Z,768.06
2017-10-30T00:17:35.065Z,768.06
2017-10-30T00:17:39.280Z,768.07
2017-10-30T00:17:43.359Z,768.06
2017-10-30T00:17:47.584Z,768.07
2017-10-30T00:17:51.662Z,768.06
2017-10-30T00:17:55.474Z,768.06
2017-10-30T00:17:59.557Z,768.08
2017-10-30T00:18:04.044Z,768.07
2017-10-30T00:18:08.263Z,768.05
2017-10-30T00:18:12.343Z,768.02
2017-10-30T00:18:16.291Z,768.04
2017-10-30T00:18:20.113Z,768.04
2017-10-30T00:18:24.337Z,768.04
2017-10-30T00:18:28.282Z,768.07
2017-10-30T00:18:32.494Z,768.04
2017-10-30T00:18:36.433Z,768.06
2017-10-30T00:18:40.512Z,768.04
2017-10-30T00:18:44.458Z,768
2017-10-30T00:18:48.553Z,768.06
2017-10-30T00:18:52.373Z,768.05
2017-10-30T00:18:56.456Z,768.03
2017-10-30T00:19:00.802Z,768.01
2017-10-30T00:19:04.883Z,768.02
2017-10-30T00:19:08.962Z,768.04
2017-10-30T00:19:13.082Z,767.99
2017-10-30T00:19:17.158Z,768.04
2017-10-30T00:19:21.371Z,768.01
2017-10-30T00:19:25.451Z,768.04
2017-10-30T00:19:29.406Z,768.03
2017-10-30T00:19:33.488Z,768.01
2017-10-30T00:19:37.701Z,768.01
2017-10-30T00:19:41.774Z,768
2017-10-30T00:19:45.983Z,768.03
2017-10-30T00:19:49.795Z,768.04
2017-10-30T00:19:53.874Z,768.02
2017-10-30T00:19:58.079Z,768.01
2017-10-30T00:20:02.161Z,768
2017-10-30T00:20:06.245Z,768.02
2017-10-30T00:20:10.325Z,767.99
2017-10-30T00:20:14.530Z,768.02
2017-10-30T00:20:18.745Z,768.03
2017-10-30T00:20:22.842Z,768.01
2017-10-30T00:20:27.183Z,768
2017-10-30T00:20:31.131Z,768
2017-10-30T00:20:35.347Z,767.98
2017-10-30T00:20:39.550Z,767.98
2017-10-30T00:20:43.896Z,767.98
2017-10-30T00:20:47.976Z,767.98
2017-10-30T00:20:52.060Z,767.99
2017-10-30T00:20:55.877Z,767.94
2017-10-30T00:20:59.696Z,767.98
2017-10-30T00:21:03.509Z,767.97
2017-10-30T00:21:07.587Z,767.96
2017-10-30T00:21:11.537Z,767.94
2017-10-30T00:21:15.885Z,767.94
2017-10-30T00:21:20.096Z,767.97
2017-10-30T00:21:24.176Z,767.97
2017-10-30T00:21:28.120Z,767.91
2017-10-30T00:21:32.201Z,767.97
2017-10-30T00:21:36.407Z,767.94
2017-10-30T00:21:40.759Z,767.94
2017-10-30T00:21:44.840Z,767.93
2017-10-30T00:21:48.794Z,767.92
2017-10-30T00:21:52.880Z,767.94
2017-10-30T00:21:56.698Z,767.9
2017-10-30T00:22:00.514Z,767.87
2017-10-30T00:22:05.042Z,767.87
2017-10-30T00:22:09.122Z,767.86
2017-10-30T00:22:13.343Z,767.91
2017-10-30T00:22:17.418Z,767.89
2017-10-30T00:22:21.493Z,767.9
2017-10-30T00:22:25.722Z,767.91
2017-10-30T00:22:29.935Z,767.91
2017-10-30T00:22:33.744Z,767.9
2017-10-30T00:22:37.963Z,767.88
2017-10-30T00:22:42.354Z,767.89
2017-10-30T00:22:46.039Z,767.88
2017-10-30T00:22:49.989Z,767.83
2017-10-30T00:22:54.072Z,767.89
2017-10-30T00:22:58.167Z,767.94
2017-10-30T00:23:02.375Z,767.89
2017-10-30T00:23:06.586Z,767.83
2017-10-30T00:23:10.542Z,767.86
2017-10-30T00:23:14.485Z,767.81
2017-10-30T00:23:18.566Z,767.78
2017-10-30T00:23:22.511Z,767.82
2017-10-30T00:23:26.324Z,767.82
2017-10-30T00:23:30.532Z,767.84
2017-10-30T00:23:34.344Z,767.83
2017-10-30T00:23:38.553Z,767.83
2017-10-30T00:23:42.641Z,767.83
2017-10-30T00:23:46.589Z,767.82
2017-10-30T00:23:50.541Z,767.8
2017-10-30T00:23:54.754Z,767.79
2017-10-30T00:23:58.574Z,767.78
2017-10-30T00:24:02.758Z,767.8
2017-10-30T00:24:06.977Z,767.82
2017-10-30T00:24:11.062Z,767.81
2017-10-30T00:24:15.148Z,767.81
2017-10-30T00:24:19.368Z,767.79
2017-10-30T00:24:23.449Z,767.78
2017-10-30T00:24:27.944Z,767.78
2017-10-30T00:24:32.140Z,767.79
2017-10-30T00:24:36.221Z,767.75
2017-10-30T00:24:40.567Z,767.74
2017-10-30T00:24:44.805Z,767.73
2017-10-30T00:24:48.753Z,767.71
2017-10-30T00:24:52.692Z,767.73
2017-10-30T00:24:56.916Z,767.74
2017-10-30T00:25:00.872Z,767.72
2017-10-30T00:25:04.871Z,767.72
2017-10-30T00:25:09.216Z,767.72
2017-10-30T00:25:13.163Z,767.72
2017-10-30T00:25:17.110Z,767.71
2017-10-30T00:25:21.321Z,767.7
2017-10-30T00:25:25.400Z,767.72
2017-10-30T00:25:29.214Z,767.67
2017-10-30T00:25:33.031Z,767.69
2017-10-30T00:25:37.250Z,767.66
2017-10-30T00:25:41.066Z,767.71
2017-10-30T00:25:45.013Z,767.73
2017-10-30T00:25:49.227Z,767.73
2017-10-30T00:25:53.313Z,767.73
2017-10-30T00:25:57.257Z,767.69
2017-10-30T00:26:01.212Z,767.7
2017-10-30T00:26:05.292Z,767.69
2017-10-30T00:26:09.629Z,767.72
2017-10-30T00:26:13.705Z,767.73
2017-10-30T00:26:17.653Z,767.71
2017-10-30T00:26:21.600Z,767.7
2017-10-30T00:26:25.814Z,767.71
2017-10-30T00:26:30.027Z,767.71
2017-10-30T00:26:34.248Z,767.7
2017-10-30T00:26:38.060Z,767.68
2017-10-30T00:26:41.881Z,767.71
2017-10-30T00:26:45.827Z,767.72
2017-10-30T00:26:49.793Z,767.71
2017-10-30T00:26:53.741Z,767.7
2017-10-30T00:26:57.948Z,767.66
2017-10-30T00:27:02.293Z,767.68
2017-10-30T00:27:06.239Z,767.66
2017-10-30T00:27:10.055Z,767.68
2017-10-30T00:27:14.274Z,767.68
2017-10-30T00:27:18.355Z,767.66
2017-10-30T00:27:22.703Z,767.66
2017-10-30T00:27:27.187Z,767.65
2017-10-30T00:27:31.393Z,767.65
2017-10-30T00:27:35.468Z,767.65
2017-10-30T00:27:39.697Z,767.66
2017-10-30T00:27:43.947Z,767.66
2017-10-30T00:27:47.765Z,767.64
2017-10-30T00:27:51.970Z,767.64
2017-10-30T00:27:56.049Z,767.64
2017-10-30T00:28:00.133Z,767.61
2017-10-30T00:28:03.948Z,767.64
2017-10-30T00:28:08.026Z,767.63
2017-10-30T00:28:12.381Z,767.64
2017-10-30T00:28:16.589Z,767.59
2017-10-30T00:28:20.535Z,767.62
2017-10-30T00:28:24.746Z,767.63
2017-10-30T00:28:28.834Z,767.65
2017-10-30T00:28:32.918Z,767.63
2017-10-30T00:28:36.995Z,767.64
2017-10-30T00:28:41.210Z,767.64
2017-10-30T00:28:45.155Z,767.62
2017-10-30T00:28:49.234Z,767.62
2017-10-30T00:28:53.320Z,767.62
2017-10-30T00:28:57.132Z,767.63
2017-10-30T00:29:01.076Z,767.6
2017-10-30T00:29:05.300Z,767.58
2017-10-30T00:29:09.120Z,767.61
2017-10-30T00:29:13.456Z,767.57
2017-10-30T00:29:17.666Z,767.61
2017-10-30T00:29:21.873Z,767.59
2017-10-30T00:29:25.825Z,767.59
2017-10-30T00:29:30.170Z,767.61
2017-10-30T00:29:33.991Z,767.57
2017-10-30T00:29:38.077Z,767.6
2017-10-30T00:29:42.032Z,767.59
2017-10-30T00:29:46.121Z,767.6
2017-10-30T00:29:50.219Z,767.59
2017-10-30T00:29:54.295Z,767.6
2017-10-30T00:29:58.243Z,767.61
2017-10-30T00:30:02.326Z,767.61
2017-10-30T00:30:06.672Z,767.6
2017-10-30T00:30:10.881Z,767.62
2017-10-30T00:30:14.967Z,767.61
2017-10-30T00:30:19.456Z,767.6
2017-10-30T00:30:23.803Z,767.6
2017-10-30T00:30:27.757Z,767.59
2017-10-30T00:30:31.719Z,767.58
2017-10-30T00:30:35.798Z,767.57
2017-10-30T00:30:39.753Z,767.56
2017-10-30T00:30:44.256Z,767.57
2017-10-30T00:30:48.073Z,767.6
2017-10-30T00:30:52.021Z,767.58
2017-10-30T00:30:55.965Z,767.58
2017-10-30T00:30:59.939Z,767.6
2017-10-30T00:31:04.016Z,767.59
2017-10-30T00:31:08.108Z,767.59
2017-10-30T00:31:12.329Z,767.57
2017-10-30T00:31:16.405Z,767.56
2017-10-30T00:31:20.484Z,767.56
2017-10-30T00:31:24.575Z,767.55
2017-10-30T00:31:28.915Z,767.57
2017-10-30T00:31:32.992Z,767.58
2017-10-30T00:31:36.946Z,767.54
2017-10-30T00:31:41.030Z,767.58
2017-10-30T00:31:44.985Z,767.54
2017-10-30T00:31:49.193Z,767.55
2017-10-30T00:31:53.014Z,767.55
2017-10-30T00:31:56.836Z,767.5
2017-10-30T00:32:01.046Z,767.49
2017-10-30T00:32:05.435Z,767.5
2017-10-30T00:32:09.516Z,767.52
2017-10-30T00:32:13.856Z,767.52
2017-10-30T00:32:18.075Z,767.54
2017-10-30T00:32:22.294Z,767.51
2017-10-30T00:32:26.368Z,767.5
2017-10-30T00:32:30.315Z,767.52
2017-10-30T00:32:34.295Z,767.54
2017-10-30T00:32:38.245Z,767.52
2017-10-30T00:32:41.933Z,767.57
2017-10-30T00:32:46.138Z,767.54
2017-10-30T00:32:50.089Z,767.56
2017-10-30T00:32:54.427Z,767.54
2017-10-30T00:32:58.385Z,767.54
2017-10-30T00:33:02.485Z,767.55
2017-10-30T00:33:06.820Z,767.53
2017-10-30T00:33:10.900Z,767.55
2017-10-30T00:33:14.977Z,767.53
2017-10-30T00:33:19.453Z,767.54
2017-10-30T00:33:23.927Z,767.53
2017-10-30T00:33:27.869Z,767.52
2017-10-30T00:33:31.683Z,767.54
2017-10-30T00:33:35.634Z,767.47
2017-10-30T00:33:39.851Z,767.51
2017-10-30T00:33:43.532Z,767.51
2017-10-30T00:33:47.611Z,767.49
2017-10-30T00:33:51.834Z,767.51
2017-10-30T00:33:55.788Z,767.55
2017-10-30T00:34:00.131Z,767.52
2017-10-30T00:34:04.349Z,767.52
2017-10-30T00:34:08.297Z,767.51
2017-10-30T00:34:12.252Z,767.54
2017-10-30T00:34:16.337Z,767.52
2017-10-30T00:34:20.567Z,767.54
2017-10-30T00:34:24.383Z,767.51
2017-10-30T00:34:28.594Z,767.5
2017-10-30T00:34:32.843Z,767.55
2017-10-30T00:34:36.761Z,767.54
2017-10-30T00:34:40.704Z,767.51
2017-10-30T00:34:44.653Z,767.53
2017-10-30T00:34:48.730Z,767.51
2017-10-30T00:34:52.680Z,767.52
2017-10-30T00:34:56.625Z,767.54
2017-10-30T00:35:00.716Z,767.49
2017-10-30T00:35:04.986Z,767.48
2017-10-30T00:35:08.940Z,767.48
2017-10-30T00:35:13.024Z,767.49
2017-10-30T00:35:16.712Z,767.47
2017-10-30T00:35:20.931Z,767.47
2017-10-30T00:35:24.877Z,767.52
2017-10-30T00:35:28.965Z,767.53
2017-10-30T00:35:33.172Z,767.56
2017-10-30T00:35:37.255Z,767.52
2017-10-30T00:35:41.234Z,767.53
2017-10-30T00:35:45.413Z,767.53
2017-10-30T00:35:49.357Z,767.56
2017-10-30T00:35:53.176Z,767.54
2017-10-30T00:35:57.552Z,767.52
2017-10-30T00:36:01.891Z,767.52
2017-10-30T00:36:06.068Z,767.54
2017-10-30T00:36:09.887Z,767.51
2017-10-30T00:36:13.834Z,767.49
2017-10-30T00:36:18.050Z,767.56
2017-10-30T00:36:22.274Z,767.53
2017-10-30T00:36:26.087Z,767.5
2017-10-30T00:36:30.162Z,767.51
2017-10-30T00:36:33.980Z,767.51
2017-10-30T00:36:38.067Z,767.51
2017-10-30T00:36:42.012Z,767.53
2017-10-30T00:36:45.957Z,767.54
2017-10-30T00:36:50.178Z,767.54
2017-10-30T00:36:54.251Z,767.58
2017-10-30T00:36:58.466Z,767.56
2017-10-30T00:37:02.414Z,767.58
2017-10-30T00:37:06.754Z,767.52
2017-10-30T00:37:10.843Z,767.56
2017-10-30T00:37:15.188Z,767.52
2017-10-30T00:37:19.132Z,767.55
2017-10-30T00:37:23.344Z,767.52
2017-10-30T00:37:27.689Z,767.59
2017-10-30T00:37:31.896Z,767.57
2017-10-30T00:37:36.110Z,767.6
2017-10-30T00:37:40.051Z,767.52
2017-10-30T00:37:44.134Z,767.59
2017-10-30T00:37:48.610Z,767.58
2017-10-30T00:37:52.430Z,767.59
2017-10-30T00:37:56.510Z,767.57
2017-10-30T00:38:00.455Z,767.59
2017-10-30T00:38:04.605Z,767.6
2017-10-30T00:38:08.419Z,767.6
2017-10-30T00:38:12.638Z,767.59
2017-10-30T00:38:16.848Z,767.63
2017-10-30T00:38:20.802Z,767.62
2017-10-30T00:38:24.613Z,767.64
2017-10-30T00:38:28.560Z,767.64
2017-10-30T00:38:32.377Z,767.62
2017-10-30T00:38:36.325Z,767.62
2017-10-30T00:38:40.437Z,767.64
2017-10-30T00:38:44.384Z,767.65
2017-10-30T00:38:48.481Z,767.65
2017-10-30T00:38:52.570Z,767.68
2017-10-30T00:38:56.781Z,767.66
2017-10-30T00:39:00.854Z,767.67
2017-10-30T00:39:05.076Z,767.69
2017-10-30T00:39:09.158Z,767.65
2017-10-30T00:39:13.099Z,767.66
2017-10-30T00:39:17.178Z,767.66
2017-10-30T00:39:21.166Z,767.7
2017-10-30T00:39:25.122Z,767.65
2017-10-30T00:39:29.071Z,767.68
2017-10-30T00:39:33.415Z,767.68
2017-10-30T00:39:37.495Z,767.66
2017-10-30T00:39:41.850Z,767.69
2017-10-30T00:39:45.665Z,767.69
2017-10-30T00:39:49.873Z,767.72
2017-10-30T00:39:53.952Z,767.71
2017-10-30T00:39:57.768Z,767.65
2017-10-30T00:40:01.888Z,767.71
2017-10-30T00:40:06.104Z,767.71
2017-10-30T00:40:09.923Z,767.72
2017-10-30T00:40:14.147Z,767.72
2017-10-30T00:40:18.097Z,767.65
2017-10-30T00:40:22.050Z,767.69
2017-10-30T00:40:26.138Z,767.68
2017-10-30T00:40:30.089Z,767.69
2017-10-30T00:40:34.312Z,767.76
2017-10-30T00:40:38.562Z,767.74
2017-10-30T00:40:42.773Z,767.73
2017-10-30T00:40:46.859Z,767.77
2017-10-30T00:40:50.679Z,767.75
2017-10-30T00:40:54.889Z,767.74
2017-10-30T00:40:58.965Z,767.75
2017-10-30T00:41:03.295Z,767.77
2017-10-30T00:41:07.638Z,767.77
2017-10-30T00:41:11.454Z,767.78
2017-10-30T00:41:15.133Z,767.79
2017-10-30T00:41:19.216Z,767.77
2017-10-30T00:41:23.164Z,767.79
2017-10-30T00:41:27.110Z,767.79
2017-10-30T00:41:31.198Z,767.79
2017-10-30T00:41:35.276Z,767.82
2017-10-30T00:41:39.488Z,767.77
2017-10-30T00:41:43.439Z,767.8
2017-10-30T00:41:47.536Z,767.83
2017-10-30T00:41:51.737Z,767.81
2017-10-30T00:41:55.823Z,767.8
2017-10-30T00:42:00.180Z,767.82
2017-10-30T00:42:04.474Z,767.83
2017-10-30T00:42:08.724Z,767.84
2017-10-30T00:42:12.938Z,767.84
2017-10-30T00:42:17.147Z,767.83
2017-10-30T00:42:21.356Z,767.81
2017-10-30T00:42:25.429Z,767.8
2017-10-30T00:42:29.374Z,767.82
2017-10-30T00:42:33.586Z,767.82
2017-10-30T00:42:37.537Z,767.84
2017-10-30T00:42:41.750Z,767.81
2017-10-30T00:42:45.841Z,767.83
2017-10-30T00:42:50.057Z,767.87
2017-10-30T00:42:53.741Z,767.89
2017-10-30T00:42:57.552Z,767.87
2017-10-30T00:43:01.366Z,767.89
2017-10-30T00:43:05.575Z,767.88
2017-10-30T00:43:09.656Z,767.91
2017-10-30T00:43:13.735Z,767.87
2017-10-30T00:43:17.552Z,767.88
2017-10-30T00:43:21.626Z,767.87
2017-10-30T00:43:25.722Z,767.89
2017-10-30T00:43:29.538Z,767.92
2017-10-30T00:43:33.493Z,767.9
2017-10-30T00:43:37.564Z,767.91
2017-10-30T00:43:41.769Z,767.91
2017-10-30T00:43:45.723Z,767.93
2017-10-30T00:43:50.061Z,767.95
2017-10-30T00:43:54.172Z,767.95
2017-10-30T00:43:58.251Z,767.95
2017-10-30T00:44:02.064Z,767.93
2017-10-30T00:44:06.150Z,767.95
2017-10-30T00:44:10.388Z,767.93
2017-10-30T00:44:14.342Z,767.97
2017-10-30T00:44:18.285Z,767.92
2017-10-30T00:44:22.100Z,767.92
2017-10-30T00:44:26.572Z,767.94
2017-10-30T00:44:30.781Z,767.94
2017-10-30T00:44:34.872Z,767.91
2017-10-30T00:44:39.217Z,767.94
2017-10-30T00:44:43.163Z,768.02
2017-10-30T00:44:46.985Z,767.98
2017-10-30T00:44:51.201Z,767.97
2017-10-30T00:44:55.673Z,767.99
2017-10-30T00:44:59.614Z,767.98
2017-10-30T00:45:03.859Z,767.96
2017-10-30T00:45:07.801Z,768.02
2017-10-30T00:45:11.618Z,767.99
2017-10-30T00:45:15.828Z,768
2017-10-30T00:45:20.163Z,768.01
2017-10-30T00:45:24.241Z,767.99
2017-10-30T00:45:28.589Z,768
2017-10-30T00:45:32.660Z,767.95
2017-10-30T00:45:36.746Z,767.98
2017-10-30T00:45:41.095Z,767.97
2017-10-30T00:45:45.304Z,767.96
2017-10-30T00:45:49.114Z,768.02
2017-10-30T00:45:53.201Z,768
2017-10-30T00:45:57.414Z,768.01
2017-10-30T00:46:01.790Z,768.04
2017-10-30T00:46:05.741Z,768.01
2017-10-30T00:46:09.835Z,768.03
2017-10-30T00:46:13.911Z,768.07
2017-10-30T00:46:17.855Z,768.03
2017-10-30T00:46:21.801Z,768.03
2017-10-30T00:46:26.017Z,768.04
2017-10-30T00:46:29.831Z,768.04
2017-10-30T00:46:33.909Z,768.07
2017-10-30T00:46:37.993Z,768.04
2017-10-30T00:46:42.214Z,768.06
2017-10-30T00:46:46.038Z,768.04
2017-10-30T00:46:49.985Z,768.03
2017-10-30T00:46:54.065Z,768.03
2017-10-30T00:46:58.013Z,768.04
2017-10-30T00:47:01.956Z,768.05
2017-10-30T00:47:05.909Z,768.03
2017-10-30T00:47:10.128Z,768.04
2017-10-30T00:47:14.216Z,768.06
2017-10-30T00:47:18.293Z,768.05
2017-10-30T00:47:22.376Z,768.05
2017-10-30T00:47:26.453Z,768.05
2017-10-30T00:47:30.401Z,768.06
2017-10-30T00:47:34.615Z,768.05
2017-10-30T00:47:38.836Z,768.05
2017-10-30T00:47:42.915Z,768.06
2017-10-30T00:47:46.860Z,768.06
2017-10-30T00:47:50.805Z,768.05
2017-10-30T00:47:55.010Z,767.99
2017-10-30T00:47:59.228Z,768.02
2017-10-30T00:48:03.452Z,768.02
2017-10-30T00:48:07.528Z,768.01
2017-10-30T00:48:11.611Z,768.04
2017-10-30T00:48:15.830Z,768.04
2017-10-30T00:48:19.918Z,768.05
2017-10-30T00:48:24.002Z,768.05
2017-10-30T00:48:27.945Z,768.07
2017-10-30T00:48:32.034Z,768.07
2017-10-30T00:48:35.981Z,768.09
2017-10-30T00:48:40.193Z,768.06
2017-10-30T00:48:44.270Z,768.08
2017-10-30T00:48:48.216Z,768.05
2017-10-30T00:48:52.430Z,768.09
2017-10-30T00:48:56.507Z,768.08
2017-10-30T00:49:00.589Z,768.06
2017-10-30T00:49:04.671Z,768.08
2017-10-30T00:49:08.483Z,768.08
2017-10-30T00:49:12.703Z,768.05
2017-10-30T00:49:16.783Z,768.07
2017-10-30T00:49:20.999Z,768.07
2017-10-30T00:49:25.098Z,768.06
2017-10-30T00:49:28.881Z,768.07
2017-10-30T00:49:33.092Z,768.06
2017-10-30T00:49:37.076Z,768.11
2017-10-30T00:49:41.420Z,768.09
2017-10-30T00:49:45.365Z,768.08
2017-10-30T00:49:49.330Z,768.08
2017-10-30T00:49:53.678Z,768.07
2017-10-30T00:49:57.621Z,768.08
2017-10-30T00:50:01.993Z,768.09
2017-10-30T00:50:06.072Z,768.1
2017-10-30T00:50:10.419Z,768.11
2017-10-30T00:50:14.367Z,768.1
2017-10-30T00:50:18.586Z,768.11
2017-10-30T00:50:22.662Z,768.11
2017-10-30T00:50:26.752Z,768.07
2017-10-30T00:50:30.963Z,768.1
2017-10-30T00:50:35.312Z,768.11
2017-10-30T00:50:39.786Z,768.1
2017-10-30T00:50:43.861Z,768.11
2017-10-30T00:50:47.674Z,768.06
2017-10-30T00:50:51.754Z,768.07
2017-10-30T00:50:55.830Z,768.11
2017-10-30T00:50:59.910Z,768.08
2017-10-30T00:51:03.864Z,768.06
2017-10-30T00:51:08.196Z,768.08
2017-10-30T00:51:12.283Z,768.1